Avon, IL

7:41 AM CDT on September 20, 2014 (GMT -0500)
MesoWest IL-9 @ Spoon River IL US ILDOT | Change Station
CLOSE
Current Station
Personal Weather Station
Location: Ellisville, IL
Elevation: 487 ft
Nearby Weather Stations

Elev 487 ft 40.57 °N, 90.30 °W | Updated 46 minutes ago

Overcast
Overcast
61 °F
Feels Like 61 °F
N
1
Wind Variable Wind from East
Gusts 2.0 mph

Today
High -- | Low -- °F
--% Chance of Precip.
Yesterday
High -- | Low -- °F
Precip. -- in
6:47 AM 7:02 PM
Waning Crescent, 12% visible
Pressure 29.99 in
Visibility 7.0 miles
Clouds Mostly Cloudy 1700 ft
Overcast 2300 ft
Dew Point 59 °F
Humidity 96%
Rainfall -999.00 in
Snow Depth Not available.
UV 0 out of 12
Pollen 5.40 out of 12
Ozone Good
PM2.5 Moderate
Flu Activity Not available.
METAR KMQB 201235Z AUTO 21007KT 7SM BKN017 OVC023 17/16 A2999 RMK AO2 LTG DSNT W T01700160

More Conditions Fewer Conditions

Pressure 29.99 in
Visibility 7.0 miles
Clouds Mostly Cloudy 1700 ft
Overcast 2300 ft
Dew Point 59 °F
Humidity 96%
Rainfall -999.00 in
Snow Depth Not available.
UV 0 out of 12
Pollen 5.40 out of 12
Ozone Good
PM2.5 Moderate
Flu Activity Not available.
METAR KMQB 201235Z AUTO 21007KT 7SM BKN017 OVC023 17/16 A2999 RMK AO2 LTG DSNT W T01700160

More Conditions Fewer Conditions

10-Day Weather Forecast

Almanac

Astronomy

Sep. 20, 2014 Rise Set
Actual Time 6:47 AM CDT 7:02 PM CDT
Civil Twilight 6:19 AM CDT 7:29 PM CDT
Nautical Twilight 5:47 AM CDT 8:01 PM CDT
Astronomical Twilight 5:15 AM CDT 8:34 PM CDT
Moon 3:25 AM CDT 5:06 PM CDT
Length of Visible Light 13h 09m
Length of Day
12h 14m
Tomorrow will be 2m 41s shorter.
Waning Crescent, 12% of the Moon is Illuminated
Today
Waning Crescent
Sep 24
New
Oct 1
First Quarter
Oct 8
Full
Oct 15
Last Quarter

Today's Extremes

State Highs State Lows

Community

WunderPhotos

Upload Photos

1,754,837 photos uploaded!

Nearby

Air Quality

  Air Quality AQ Index Pollutant
Yesterday Good
PM2.5
Yesterday Good
OZONE
Current Moderate
PM2.5
Current Good
OZONE
Saturday Moderate
PM2.5
Sunday Good
PM2.5
Monday Good
PM2.5
Tuesday Good
PM2.5

Snow Depth

Station Depth Elevation
No new snow has been reported.

Earthquake Activity

City Distance Mag. Time & Date
No recent earthquake activity has been reported nearby.
Minimum magnitude displayed is 2.5.

Coastal Water Temperatures

Place Temperature
No Stations Reporting

Nearby Weather Stations